Time;durP1;ratioP1;P1;durP2;ratioP2;P2;SDS_P1;SDS_P2;PMS_P1;PMS_P2;Temp;Humidity;BMP_temperature;BMP_pressure;BME280_temperature;BME280_humidity;BME280_pressure;Samples;Min_cycle;Max_cycle;Signal;HPM_P1;HPM_P2
2022/12/23 00:00:38;;;;;;;72.28;33.03;;;;;;;0.17;81.88;99692.25;5069991;28;20470;-43
2022/12/23 00:03:04;;;;;;;76.47;33.10;;;;;;;-0.05;84.29;99690.75;5070198;28;20173;-43
2022/12/23 00:05:29;;;;;;;73.88;34.03;;;;;;;1.02;82.87;99697.66;5070036;28;20025;-44
2022/12/23 00:07:55;;;;;;;76.00;34.33;;;;;;;0.94;83.71;99690.50;5070015;28;20022;-44
2022/12/23 00:10:20;;;;;;;63.15;32.90;;;;;;;0.76;80.04;99693.88;5070228;28;20441;-43
2022/12/23 00:15:29;;;;;;;65.80;30.77;;;;;;;0.41;84.57;99691.84;5070570;28;20059;-44
2022/12/23 00:17:55;;;;;;;63.67;31.50;;;;;;;1.08;83.38;99695.28;5069776;28;20132;-43
2022/12/23 00:20:20;;;;;;;59.70;30.05;;;;;;;0.90;83.70;99691.75;5069957;28;20024;-42
2022/12/23 00:23:04;;;;;;;60.95;28.67;;;;;;;0.35;80.43;99697.66;5069997;28;20476;-43
2022/12/23 00:25:39;;;;;;;63.58;29.20;;;;;;;-0.05;82.21;99691.56;5069553;28;20056;-43
2022/12/23 00:28:16;;;;;;;64.28;30.63;;;;;;;0.18;86.72;99692.13;5069880;28;20024;-43
2022/12/23 00:30:51;;;;;;;65.57;31.83;;;;;;;1.20;82.35;99690.69;5070043;28;20161;-42
2022/12/23 00:33:23;;;;;;;73.18;33.38;;;;;;;0.43;83.15;99687.28;5069793;28;20028;-44
2022/12/23 00:35:49;;;;;;;61.70;29.02;;;;;;;-0.13;79.67;99691.44;5069886;28;20043;-43
2022/12/23 00:38:16;;;;;;;64.82;29.77;;;;;;;-0.40;82.97;99690.28;5069758;28;20491;-43
2022/12/23 00:43:26;;;;;;;66.40;31.33;;;;;;;0.71;84.02;99684.78;5069723;28;20028;-44
2022/12/23 00:45:52;;;;;;;63.63;28.75;;;;;;;0.14;82.35;99682.09;5069787;28;20029;-44
2022/12/23 00:51:02;;;;;;;75.03;32.63;;;;;;;-0.31;87.20;99695.66;5069967;28;20028;-44
2022/12/23 00:53:27;;;;;;;65.93;30.70;;;;;;;-0.22;87.70;99684.38;5069687;28;20389;-43
2022/12/23 00:55:53;;;;;;;65.57;30.10;;;;;;;-0.25;85.58;99674.19;5069754;28;20020;-43
2022/12/23 00:58:20;;;;;;;61.30;29.52;;;;;;;-0.32;84.74;99691.41;5069399;28;20047;-44
2022/12/23 01:06:14;;;;;;;62.72;29.23;;;;;;;-0.67;86.26;99675.19;5069711;28;20039;-42
2022/12/23 01:08:40;;;;;;;66.63;31.80;;;;;;;-0.61;85.29;99674.69;5069121;28;20029;-42
2022/12/23 01:11:08;;;;;;;68.95;30.58;;;;;;;-0.63;85.34;99666.16;5069558;28;20024;-42
2022/12/23 01:13:34;;;;;;;67.40;30.95;;;;;;;-0.78;85.89;99662.25;5069276;28;20025;-42
2022/12/23 01:16:01;;;;;;;63.42;30.92;;;;;;;-0.48;83.77;99658.72;5068941;28;20565;-43
2022/12/23 01:18:27;;;;;;;72.65;30.80;;;;;;;-0.63;84.59;99665.28;5067607;28;20051;-43
2022/12/23 01:20:52;;;;;;;64.88;29.73;;;;;;;-0.82;85.32;99658.22;5068260;28;20033;-43
2022/12/23 01:23:17;;;;;;;65.22;29.77;;;;;;;-0.80;86.68;99658.91;5068635;28;20024;-43
2022/12/23 01:25:43;;;;;;;61.78;29.55;;;;;;;-0.69;86.00;99655.38;5069316;28;20493;-43
2022/12/23 01:28:08;;;;;;;67.00;29.75;;;;;;;-0.70;85.68;99659.78;5068973;28;20032;-43
2022/12/23 01:30:34;;;;;;;59.97;28.42;;;;;;;-0.62;85.60;99654.72;5069177;28;20073;-43
2022/12/23 01:32:59;;;;;;;64.55;28.95;;;;;;;-0.56;85.79;99650.75;5069356;28;20024;-42
2022/12/23 01:35:24;;;;;;;67.60;29.02;;;;;;;-0.55;85.86;99644.56;5069313;28;20017;-42
2022/12/23 01:37:50;;;;;;;59.72;30.33;;;;;;;-0.42;84.76;99639.91;5070856;28;20028;-43
2022/12/23 01:40:15;;;;;;;61.78;28.13;;;;;;;-0.27;84.21;99637.69;5072515;28;20105;-43
2022/12/23 01:42:44;;;;;;;58.55;29.65;;;;;;;-0.10;83.11;99640.63;5071937;28;20055;-43
2022/12/23 01:45:32;;;;;;;63.58;30.13;;;;;;;0.50;80.02;99637.81;5072244;28;20024;-43
2022/12/23 01:48:14;;;;;;;64.82;31.00;;;;;;;0.62;80.49;99638.47;5071994;28;20056;-44
2022/12/23 01:50:51;;;;;;;61.90;30.23;;;;;;;0.84;78.98;99637.28;5072237;28;20078;-44
2022/12/23 01:53:33;;;;;;;64.15;30.15;;;;;;;0.40;77.80;99630.00;5072326;28;20019;-44
2022/12/23 01:56:07;;;;;;;62.85;29.00;;;;;;;0.14;79.49;99629.75;5072729;28;20017;-44
2022/12/23 01:58:38;;;;;;;55.90;28.38;;;;;;;0.06;nan;99640.91;5072008;28;20024;-36
2022/12/23 02:03:52;;;;;;;61.35;29.73;;;;;;;0.34;78.95;99644.47;5072436;28;20577;-38
2022/12/23 02:09:25;;;;;;;57.55;29.33;;;;;;;0.22;78.93;99629.84;5072377;28;20138;-36
2022/12/23 02:12:17;;;;;;;65.93;30.13;;;;;;;0.53;78.11;99624.44;5072352;28;20029;-36
2022/12/23 02:18:21;;;;;;;63.53;29.13;;;;;;;0.46;79.13;99615.47;5072443;28;20052;-36
2022/12/23 02:21:10;;;;;;;65.78;30.13;;;;;;;0.58;78.15;99616.97;5071924;28;20085;-36
2022/12/23 02:23:35;;;;;;;64.18;30.00;;;;;;;0.10;81.58;99623.13;5072719;28;20020;-38
2022/12/23 02:26:38;;;;;;;70.75;30.42;;;;;;;0.23;80.14;99622.81;5072730;28;20044;-37
2022/12/23 02:29:12;;;;;;;67.47;30.42;;;;;;;0.71;77.38;99627.16;5072458;28;20093;-37
2022/12/23 02:31:59;;;;;;;64.63;30.20;;;;;;;0.98;75.14;99615.88;5071124;28;20341;-36
2022/12/23 02:34:24;;;;;;;66.03;31.77;;;;;;;0.73;74.71;99622.59;5071169;28;20516;-37
2022/12/23 02:36:56;;;;;;;73.72;32.00;;;;;;;0.72;75.60;99627.00;5071359;28;20108;-37
2022/12/23 02:39:37;;;;;;;65.53;29.23;;;;;;;0.75;74.48;99628.50;5071340;28;20079;-37
2022/12/23 02:42:14;;;;;;;64.40;29.42;;;;;;;0.73;73.92;99628.66;5070940;28;20031;-36
2022/12/23 02:45:06;;;;;;;57.42;27.88;;;;;;;0.38;74.36;99590.84;5070908;28;20028;-36
2022/12/23 02:47:47;;;;;;;60.53;28.15;;;;;;;0.72;73.93;99613.06;5072262;28;20039;-36
2022/12/23 02:50:21;;;;;;;58.50;28.67;;;;;;;0.75;76.54;99603.13;5072150;28;20059;-36
2022/12/23 02:52:50;;;;;;;65.57;29.55;;;;;;;0.96;75.56;99597.66;5071835;28;20028;-36
2022/12/23 02:55:23;;;;;;;59.93;28.63;;;;;;;0.94;75.28;99601.41;5071847;28;20016;-37
2022/12/23 02:57:53;;;;;;;70.28;28.73;;;;;;;0.98;75.79;99598.34;5071829;28;20033;-37
2022/12/23 03:00:20;;;;;;;63.28;28.85;;;;;;;1.20;75.34;99605.97;5071656;28;20433;-38
2022/12/23 03:02:46;;;;;;;55.63;27.70;;;;;;;1.11;73.34;99607.69;5071529;28;20056;-37
2022/12/23 03:05:23;;;;;;;55.88;27.33;;;;;;;1.07;74.83;99608.94;5071671;28;20077;-36
2022/12/23 03:07:51;;;;;;;52.80;26.38;;;;;;;0.99;73.18;99604.44;5071913;28;20024;-37
2022/12/23 03:10:58;;;;;;;49.65;26.15;;;;;;;0.83;73.01;99605.03;5071667;28;20032;-36
2022/12/23 03:13:26;;;;;;;54.08;25.95;;;;;;;0.82;73.01;99595.53;5009836;28;20093;-37
2022/12/23 03:15:54;;;;;;;56.00;26.90;;;;;;;0.70;74.92;99604.53;5062214;28;20045;-36
2022/12/23 03:18:41;;;;;;;58.72;27.00;;;;;;;0.97;74.44;99593.25;5071299;28;20060;-36
2022/12/23 03:21:23;;;;;;;59.88;26.15;;;;;;;0.56;75.13;99606.63;5071615;28;20068;-36
2022/12/23 03:24:00;;;;;;;53.60;25.70;;;;;;;0.37;76.29;99598.84;5071253;28;20059;-37
2022/12/23 03:26:35;;;;;;;58.63;26.27;;;;;;;1.02;74.25;99598.88;5071195;28;20021;-37
2022/12/23 03:29:08;;;;;;;58.60;26.73;;;;;;;0.76;73.80;99598.72;5071239;28;20017;-36
2022/12/23 03:31:35;;;;;;;58.83;28.50;;;;;;;1.15;76.83;99586.25;5071222;28;20490;-36
2022/12/23 03:34:07;;;;;;;59.58;28.42;;;;;;;1.40;78.04;99583.91;5071273;28;20418;-35
2022/12/23 03:36:40;;;;;;;61.13;27.15;;;;;;;1.85;76.56;99579.59;5071129;28;20020;-37
2022/12/23 03:39:10;;;;;;;95.93;30.65;;;;;;;2.13;77.61;99583.75;5071229;28;20028;-36
2022/12/23 03:41:40;;;;;;;;;;;;;;;1.57;78.43;99590.16;5071493;28;20052;-37
2022/12/23 03:44:11;;;;;;;54.10;26.15;;;;;;;1.05;78.44;99580.25;5071069;28;20339;-36
2022/12/23 03:46:42;;;;;;;51.65;24.60;;;;;;;0.28;79.16;99594.44;5071383;28;20040;-36
2022/12/23 03:49:14;;;;;;;49.17;25.92;;;;;;;0.18;81.76;99587.44;5071370;28;20036;-36
2022/12/23 03:51:50;;;;;;;56.72;27.50;;;;;;;0.29;85.23;99588.25;5071177;28;20024;-37
2022/12/23 03:54:24;;;;;;;56.08;27.40;;;;;;;1.23;81.60;99585.53;5071072;28;20024;-36
2022/12/23 03:56:57;;;;;;;51.08;25.17;;;;;;;0.71;81.34;99596.53;5070975;28;20033;-36
2022/12/23 03:59:27;;;;;;;45.63;22.17;;;;;;;0.35;78.89;99595.53;5070394;28;20035;-36
2022/12/23 04:02:33;;;;;;;47.15;22.98;;;;;;;0.01;82.50;99600.41;5070661;28;20029;-36
2022/12/23 04:05:17;;;;;;;50.17;24.88;;;;;;;0.71;84.22;99604.41;5036937;28;20051;-36
2022/12/23 04:07:59;;;;;;;52.40;25.02;;;;;;;0.76;83.25;99602.19;5070920;28;20021;-36
2022/12/23 04:10:24;;;;;;;52.83;24.27;;;;;;;0.64;81.98;99605.94;5070676;28;20056;-36
2022/12/23 04:12:50;;;;;;;53.05;25.77;;;;;;;0.48;82.91;99605.72;5071050;28;20528;-36
2022/12/23 04:15:21;;;;;;;52.05;25.50;;;;;;;0.25;83.83;99611.28;5070997;28;20048;-36
2022/12/23 04:17:48;;;;;;;54.85;27.52;;;;;;;1.14;82.43;99604.75;5070115;28;20052;-36
2022/12/23 04:20:14;;;;;;;94.60;40.75;;;;;;;0.85;82.95;99595.22;5070846;28;20070;-36
2022/12/23 04:22:42;;;;;;;106.13;43.33;;;;;;;0.52;80.62;99589.56;5070950;28;20020;-35
2022/12/23 04:25:08;;;;;;;182.70;72.70;;;;;;;-0.04;81.58;99599.03;5070621;28;20017;-35
2022/12/23 04:27:34;;;;;;;66.97;31.08;;;;;;;0.04;85.82;99595.72;5070800;28;20477;-36
2022/12/23 04:29:59;;;;;;;72.18;27.60;;;;;;;0.90;81.79;99594.81;5070626;28;20027;-35
2022/12/23 04:32:25;;;;;;;58.55;24.90;;;;;;;0.43;81.77;99598.28;5070521;28;20087;-35
2022/12/23 04:34:51;;;;;;;57.60;24.10;;;;;;;-0.05;80.79;99596.56;5070838;28;20012;-36
2022/12/23 04:37:16;;;;;;;51.00;23.67;;;;;;;-0.29;83.13;99583.88;5071102;28;20112;-37
2022/12/23 04:39:41;;;;;;;55.40;24.77;;;;;;;0.08;87.09;99591.88;5070769;28;20473;-36
2022/12/23 04:42:07;;;;;;;49.78;23.67;;;;;;;0.81;83.61;99585.19;5070792;28;20482;-35
2022/12/23 04:44:32;;;;;;;47.45;22.63;;;;;;;0.54;81.05;99573.72;5070695;28;20020;-35
2022/12/23 04:46:58;;;;;;;45.10;22.20;;;;;;;0.01;81.58;99588.16;5069295;28;20039;-36
2022/12/23 04:49:23;;;;;;;53.92;23.90;;;;;;;-0.04;83.49;99604.28;5063875;28;20468;-36
2022/12/23 04:51:48;;;;;;;52.22;24.55;;;;;;;0.47;86.91;99604.88;5058953;28;20481;-35
2022/12/23 04:54:14;;;;;;;53.92;24.63;;;;;;;1.12;84.04;99610.16;5050463;28;20473;-37
2022/12/23 04:56:39;;;;;;;54.33;23.25;;;;;;;0.56;83.13;99600.59;5050826;28;20029;-37
2022/12/23 04:59:05;;;;;;;45.75;22.05;;;;;;;0.34;81.33;99597.34;5050465;28;20448;-37
2022/12/23 05:01:30;;;;;;;46.08;22.35;;;;;;;-0.18;83.91;99586.38;5050460;28;20032;-36
2022/12/23 05:03:55;;;;;;;48.38;23.42;;;;;;;0.36;86.32;99589.31;5052816;28;20079;-36
2022/12/23 05:06:21;;;;;;;44.55;23.05;;;;;;;1.13;83.75;99598.69;5070212;28;20457;-36
2022/12/23 05:08:46;;;;;;;47.08;22.15;;;;;;;0.62;83.75;99613.09;5070118;28;20024;-35
2022/12/23 05:11:12;;;;;;;39.53;20.17;;;;;;;-0.07;83.90;99604.53;5070947;28;20116;-36
2022/12/23 05:13:37;;;;;;;43.10;22.48;;;;;;;-0.14;84.99;99608.66;5074281;28;20021;-36
2022/12/23 05:16:03;;;;;;;58.92;23.58;;;;;;;0.46;87.07;99600.63;5074335;28;20415;-36
2022/12/23 05:18:28;;;;;;;48.35;24.70;;;;;;;1.20;83.69;99606.81;5073883;28;20072;-36
2022/12/23 05:20:54;;;;;;;47.25;22.33;;;;;;;0.98;82.06;99603.59;5074094;28;20020;-36
2022/12/23 05:23:19;;;;;;;43.85;22.38;;;;;;;0.14;84.35;99595.72;5074330;28;20036;-36
2022/12/23 05:25:51;;;;;;;48.88;23.90;;;;;;;-0.08;87.96;99592.41;5073652;28;20477;-37
2022/12/23 05:28:17;;;;;;;56.55;25.80;;;;;;;0.66;87.32;99603.16;5073877;28;20020;-37
2022/12/23 05:30:43;;;;;;;55.75;23.85;;;;;;;1.10;84.71;99609.47;5073772;28;20031;-36
2022/12/23 05:33:08;;;;;;;45.15;21.90;;;;;;;0.49;80.21;99607.34;5073723;28;20020;-36
2022/12/23 05:35:34;;;;;;;78.93;37.53;;;;;;;0.68;80.19;99614.31;5073408;28;20089;-37
2022/12/23 05:38:01;;;;;;;68.80;33.83;;;;;;;0.45;82.01;99619.91;5073936;28;20024;-36
2022/12/23 05:40:26;;;;;;;54.55;25.67;;;;;;;0.95;84.23;99618.78;5073776;28;20151;-36
2022/12/23 05:42:52;;;;;;;49.88;25.92;;;;;;;1.07;83.49;99630.72;5073288;28;20048;-37
2022/12/23 05:45:17;;;;;;;55.03;25.65;;;;;;;1.43;79.82;99619.50;5072554;28;20031;-37
2022/12/23 05:47:43;;;;;;;51.78;23.88;;;;;;;0.40;78.12;99606.44;5072971;28;20101;-37
2022/12/23 05:50:08;;;;;;;54.30;24.13;;;;;;;0.46;78.08;99634.66;5072865;28;20055;-36
2022/12/23 05:52:34;;;;;;;58.05;26.50;;;;;;;0.93;83.35;99629.41;5072366;28;20433;-36
2022/12/23 05:54:59;;;;;;;56.97;27.77;;;;;;;2.16;90.88;99635.13;5072301;28;20396;-38
2022/12/23 05:57:25;;;;;;;98.97;43.53;;;;;;;2.14;80.28;99634.44;5072546;28;20120;-38
2022/12/23 05:59:50;;;;;;;133.55;53.72;;;;;;;1.17;74.36;99630.69;5072037;28;20094;-37
2022/12/23 06:02:16;;;;;;;68.32;30.85;;;;;;;1.14;73.84;99629.19;5072040;28;20116;-36
2022/12/23 06:04:41;;;;;;;61.53;28.67;;;;;;;1.00;77.16;99592.16;5072126;28;20059;-37
2022/12/23 06:07:06;;;;;;;62.97;29.15;;;;;;;1.59;79.27;99634.59;5072164;28;20021;-38
2022/12/23 06:09:32;;;;;;;62.63;30.02;;;;;;;1.80;80.69;99637.75;5072650;28;20025;-36
2022/12/23 06:11:57;;;;;;;74.32;33.95;;;;;;;0.87;74.08;99626.53;5072005;28;20024;-43
2022/12/23 06:14:23;;;;;;;121.13;48.78;;;;;;;0.63;75.97;99629.63;5069396;28;20441;-44
2022/12/23 06:16:50;;;;;;;81.45;35.65;;;;;;;1.00;nan;99626.22;5072238;28;20043;-43
2022/12/23 06:19:15;;;;;;;66.15;30.67;;;;;;;1.45;81.38;99626.25;5071411;28;20048;-44
2022/12/23 06:21:41;;;;;;;63.00;30.17;;;;;;;1.36;82.03;99627.94;5072070;28;20035;-43
2022/12/23 06:24:06;;;;;;;58.45;27.15;;;;;;;1.13;78.45;99637.19;5064202;28;20022;-43
2022/12/23 06:26:33;;;;;;;63.45;27.58;;;;;;;0.91;76.99;99638.38;5060841;28;20029;-43
2022/12/23 06:28:58;;;;;;;61.35;29.50;;;;;;;0.63;82.58;99640.97;5051659;28;20025;-43
2022/12/23 06:31:23;;;;;;;63.08;28.48;;;;;;;1.29;82.04;99633.94;5050336;28;20040;-43
2022/12/23 06:33:49;;;;;;;56.92;26.67;;;;;;;1.72;84.29;99651.63;5050589;28;20036;-44
2022/12/23 06:36:14;;;;;;;55.20;26.13;;;;;;;1.55;76.32;99647.19;5050675;28;20035;-44
2022/12/23 06:38:40;;;;;;;57.92;26.15;;;;;;;1.69;74.88;99638.78;5050385;28;20445;-44
2022/12/23 06:41:06;;;;;;;40.22;20.00;;;;;;;3.56;96.12;99651.66;5050635;28;20114;-44
2022/12/23 06:43:31;;;;;;;55.95;27.40;;;;;;;9.02;100.00;99653.91;5050480;28;20032;-44
2022/12/23 06:45:57;;;;;;;55.00;26.13;;;;;;;8.20;66.94;99641.03;5051506;28;20024;-45
2022/12/23 06:48:22;;;;;;;74.28;34.47;;;;;;;5.50;67.66;99642.03;5051697;28;20021;-37
2022/12/23 06:50:48;;;;;;;63.65;27.90;;;;;;;3.72;73.71;99639.34;5052229;28;20021;-36
2022/12/23 06:53:13;;;;;;;66.25;27.83;;;;;;;3.21;76.49;99638.53;5052565;28;20175;-36
2022/12/23 06:55:39;;;;;;;62.35;27.25;;;;;;;2.61;78.19;99643.81;5058785;28;20104;-36
2022/12/23 06:58:04;;;;;;;62.50;27.25;;;;;;;2.42;80.39;99645.66;5065443;28;20025;-36
2022/12/23 07:00:30;;;;;;;71.13;28.42;;;;;;;2.27;80.23;99650.63;5061221;28;20538;-37
2022/12/23 07:02:55;;;;;;;67.72;29.70;;;;;;;2.10;81.51;99643.59;5052246;28;20020;-37
2022/12/23 07:05:21;;;;;;;57.15;27.27;;;;;;;1.78;82.80;99644.13;5052215;28;20098;-36
2022/12/23 07:07:46;;;;;;;58.90;28.20;;;;;;;1.83;82.27;99637.47;5069286;28;20028;-36
2022/12/23 07:10:12;;;;;;;58.33;28.55;;;;;;;1.98;81.53;99635.16;5071094;28;20095;-36
2022/12/23 07:12:38;;;;;;;66.75;29.55;;;;;;;1.82;83.17;99634.97;5071314;28;20476;-36
2022/12/23 07:15:04;;;;;;;71.13;30.38;;;;;;;1.69;83.10;99636.16;5069826;28;20024;-37
2022/12/23 07:17:30;;;;;;;98.32;40.22;;;;;;;1.85;82.27;99642.56;5069225;28;20504;-36
2022/12/23 07:19:55;;;;;;;104.20;44.03;;;;;;;2.03;83.11;99647.81;5070237;28;20038;-36
2022/12/23 07:22:21;;;;;;;93.55;43.70;;;;;;;2.44;82.06;99648.16;5069609;28;20039;-36
2022/12/23 07:24:47;;;;;;;92.00;40.72;;;;;;;2.84;78.90;99657.28;5069700;28;20112;-36
2022/12/23 07:27:12;;;;;;;91.80;39.92;;;;;;;2.94;78.95;99664.06;5069396;28;20117;-36
2022/12/23 07:29:37;;;;;;;89.80;43.63;;;;;;;3.40;78.11;99661.13;5069281;28;20019;-35
2022/12/23 07:32:03;;;;;;;94.88;44.38;;;;;;;3.36;78.15;99665.06;5070217;28;20052;-37
2022/12/23 07:34:29;;;;;;;89.97;43.75;;;;;;;3.37;77.77;99663.25;5071141;28;20044;-37
2022/12/23 07:36:54;;;;;;;87.25;44.25;;;;;;;3.50;77.14;99667.13;5071213;28;20016;-37
2022/12/23 07:39:20;;;;;;;93.72;44.00;;;;;;;3.67;76.01;99661.88;5071168;28;20021;-35
2022/12/23 07:41:45;;;;;;;91.03;41.45;;;;;;;4.15;78.02;99657.69;5071102;28;20431;-36
2022/12/23 07:44:11;;;;;;;93.93;44.00;;;;;;;4.53;73.76;99647.44;5071004;28;20496;-36
2022/12/23 07:46:37;;;;;;;92.95;42.70;;;;;;;4.64;72.37;99657.66;5070582;28;20130;-36
2022/12/23 07:49:02;;;;;;;84.47;42.67;;;;;;;5.12;70.27;99659.53;5071234;28;20164;-35
2022/12/23 07:51:28;;;;;;;112.13;54.72;;;;;;;5.01;70.78;99658.91;5070847;28;20412;-36
2022/12/23 07:53:53;;;;;;;89.07;45.40;;;;;;;5.26;69.19;99664.91;5070916;28;20170;-36
2022/12/23 07:56:20;;;;;;;97.03;48.10;;;;;;;5.40;68.96;99666.00;5070669;28;20028;-37
2022/12/23 07:58:50;;;;;;;91.80;43.80;;;;;;;5.64;66.91;99669.53;5070774;28;20032;-37
2022/12/23 08:01:16;;;;;;;97.28;46.63;;;;;;;5.84;66.39;99669.91;5070736;28;20025;-36
2022/12/23 08:03:41;;;;;;;85.85;44.85;;;;;;;6.37;64.18;99667.44;5070326;28;20071;-36
2022/12/23 08:06:11;;;;;;;81.85;41.22;;;;;;;6.74;62.14;99660.47;5070661;28;20452;-37
2022/12/23 08:08:38;;;;;;;102.03;45.05;;;;;;;6.96;61.20;99658.78;5070715;28;20028;-37
2022/12/23 08:11:05;;;;;;;84.70;43.50;;;;;;;6.73;61.92;99666.78;5070534;28;20042;-36
2022/12/23 08:13:34;;;;;;;83.57;42.60;;;;;;;6.46;63.22;99661.06;5070018;28;20021;-37
2022/12/23 08:16:00;;;;;;;80.88;42.85;;;;;;;6.92;60.60;99668.06;5070801;28;20025;-37
2022/12/23 08:18:29;;;;;;;86.75;40.63;;;;;;;6.89;60.64;99656.00;5070337;28;20109;-36
2022/12/23 08:21:06;;;;;;;83.70;40.35;;;;;;;6.86;60.43;99664.34;5070002;28;20048;-36
2022/12/23 08:23:32;;;;;;;75.07;39.88;;;;;;;6.76;61.53;99663.75;5070532;28;20108;-38
2022/12/23 08:26:10;;;;;;;83.00;40.63;;;;;;;7.21;60.69;99669.91;5070649;28;20048;-37
2022/12/23 08:28:36;;;;;;;79.78;42.42;;;;;;;7.15;60.76;99663.50;5070415;28;20048;-37
2022/12/23 08:31:13;;;;;;;79.85;42.40;;;;;;;7.63;59.31;99668.38;5070139;28;20048;-35
2022/12/23 08:33:40;;;;;;;85.30;42.15;;;;;;;7.85;59.26;99671.91;5070534;28;20024;-36
2022/12/23 08:36:07;;;;;;;82.60;42.78;;;;;;;8.07;57.65;99662.13;5069840;28;20036;-37
2022/12/23 08:38:34;;;;;;;74.22;39.47;;;;;;;7.78;57.66;99663.06;5068258;28;20048;-36
2022/12/23 08:40:59;;;;;;;85.38;43.15;;;;;;;7.76;58.11;99660.59;5051272;28;20082;-36
2022/12/23 08:43:28;;;;;;;80.53;43.75;;;;;;;7.96;58.94;99660.00;5059193;28;20029;-36
2022/12/23 08:45:53;;;;;;;77.35;40.15;;;;;;;7.91;58.05;99663.19;5070665;28;20094;-37
2022/12/23 08:48:19;;;;;;;74.47;36.13;;;;;;;8.30;57.28;99658.47;5074750;28;20024;-36
2022/12/23 08:50:45;;;;;;;61.08;34.75;;;;;;;8.39;56.12;99650.19;5075009;28;20024;-35
2022/12/23 08:53:11;;;;;;;70.95;35.00;;;;;;;8.37;55.49;99662.81;5074846;28;20021;-36
2022/12/23 08:55:38;;;;;;;61.38;32.95;;;;;;;8.43;55.82;99660.44;5075056;28;20078;-36
2022/12/23 08:58:03;;;;;;;66.43;34.60;;;;;;;8.39;55.71;99654.66;5075043;28;20032;-37
2022/12/23 09:00:28;;;;;;;55.40;33.08;;;;;;;8.33;55.15;99652.78;5074329;28;20115;-36
2022/12/23 09:02:54;;;;;;;64.50;35.08;;;;;;;8.21;54.63;99641.88;5074216;28;20447;-36
2022/12/23 09:05:19;;;;;;;65.95;35.28;;;;;;;8.27;54.24;99642.94;5074409;28;20016;-36
2022/12/23 09:07:45;;;;;;;66.55;35.80;;;;;;;8.19;54.73;99633.31;5073891;28;20451;-37
2022/12/23 09:10:10;;;;;;;77.22;37.60;;;;;;;7.77;56.64;99641.06;5074367;28;20044;-37
2022/12/23 09:12:35;;;;;;;67.47;38.50;;;;;;;7.94;55.81;99627.53;5073953;28;20582;-36
2022/12/23 09:15:01;;;;;;;77.30;38.80;;;;;;;7.77;55.81;99632.28;5073948;28;20016;-37
2022/12/23 09:17:27;;;;;;;75.10;40.20;;;;;;;7.77;56.51;99614.56;5073470;28;20033;-37
2022/12/23 09:19:52;;;;;;;66.25;36.92;;;;;;;7.75;56.35;99616.56;5073686;28;20021;-36
2022/12/23 09:22:17;;;;;;;72.85;37.90;;;;;;;8.04;56.88;99617.47;5073410;28;20027;-36
2022/12/23 09:24:43;;;;;;;77.13;38.95;;;;;;;8.18;55.97;99613.09;5073037;28;20019;-36
2022/12/23 09:27:08;;;;;;;77.47;37.95;;;;;;;8.09;55.52;99616.88;5073242;28;20021;-36
2022/12/23 09:29:34;;;;;;;74.90;36.70;;;;;;;7.76;55.84;99620.84;5073432;28;20147;-36
2022/12/23 09:31:59;;;;;;;68.07;37.78;;;;;;;7.68;55.83;99609.56;5073175;28;20115;-36
2022/12/23 09:34:25;;;;;;;68.53;37.88;;;;;;;7.95;55.12;99608.00;5073315;28;20032;-36
2022/12/23 09:36:51;;;;;;;69.32;37.55;;;;;;;7.95;55.43;99608.00;5071085;28;20024;-36
2022/12/23 09:39:16;;;;;;;67.85;34.72;;;;;;;9.91;55.85;99610.53;5073766;28;20031;-36
2022/12/23 09:41:55;;;;;;;63.65;34.55;;;;;;;9.25;52.63;99611.97;5074034;28;20052;-36
2022/12/23 09:44:28;;;;;;;64.70;34.75;;;;;;;8.85;52.16;99606.44;5074044;28;20479;-36
2022/12/23 09:47:02;;;;;;;61.60;32.80;;;;;;;8.27;54.51;99593.38;5073945;28;20029;-36
2022/12/23 09:49:27;;;;;;;64.03;34.67;;;;;;;8.30;54.81;99600.97;5073558;28;20021;-36
2022/12/23 09:51:59;;;;;;;79.22;34.88;;;;;;;8.67;53.21;99596.34;5072845;28;20411;-36
2022/12/23 09:54:39;;;;;;;65.93;34.72;;;;;;;8.53;53.69;99599.91;5072976;28;20404;-36
2022/12/23 09:57:08;;;;;;;66.63;34.80;;;;;;;8.34;54.32;99599.56;5072112;28;20100;-36
2022/12/23 10:00:05;;;;;;;66.72;34.65;;;;;;;8.41;54.55;99597.81;5071837;28;20032;-36
2022/12/23 10:02:30;;;;;;;68.88;37.25;;;;;;;8.47;55.08;99585.59;5073014;28;20496;-36
2022/12/23 10:05:28;;;;;;;81.20;38.15;;;;;;;8.37;55.43;99590.41;5072425;28;20527;-36
2022/12/23 10:07:59;;;;;;;65.07;35.95;;;;;;;8.25;55.95;99578.69;5041612;28;20103;-37
2022/12/23 10:10:36;;;;;;;66.75;35.60;;;;;;;8.19;56.21;99575.78;5072875;28;20472;-36
2022/12/23 10:13:05;;;;;;;62.90;34.88;;;;;;;8.19;55.25;99585.59;5072897;28;20125;-37
2022/12/23 10:15:44;;;;;;;64.47;35.05;;;;;;;7.91;57.60;99577.59;5072740;28;20107;-35
2022/12/23 10:18:41;;;;;;;65.25;34.60;;;;;;;8.00;58.06;99576.47;5070573;28;20053;-36
2022/12/23 10:21:16;;;;;;;62.85;36.53;;;;;;;7.83;59.15;99571.41;5044440;28;20044;-36
2022/12/23 10:23:48;;;;;;;67.15;35.75;;;;;;;8.15;59.00;99571.88;5071946;28;20039;-36
2022/12/23 10:26:20;;;;;;;68.90;34.50;;;;;;;8.43;57.63;99565.78;5072545;28;20028;-37
2022/12/23 10:28:46;;;;;;;67.65;36.85;;;;;;;8.68;56.07;99570.63;5072334;28;20139;-36
2022/12/23 10:31:18;;;;;;;64.97;35.72;;;;;;;8.59;56.50;99570.81;5072752;28;20040;-37
2022/12/23 10:34:03;;;;;;;63.63;35.22;;;;;;;8.87;55.62;99566.47;5072044;28;20072;-35
2022/12/23 10:36:54;;;;;;;69.13;36.92;;;;;;;8.74;55.94;99570.69;5071799;28;20488;-36
2022/12/23 10:39:25;;;;;;;65.03;35.15;;;;;;;8.68;56.54;99568.81;5072034;28;20024;-36
2022/12/23 10:42:11;;;;;;;64.88;35.30;;;;;;;8.38;57.64;99569.00;5071887;28;20059;-35
2022/12/23 10:44:52;;;;;;;64.80;34.95;;;;;;;8.36;58.09;99567.56;5071843;28;20025;-36
2022/12/23 10:47:33;;;;;;;69.13;34.53;;;;;;;8.50;57.81;99566.66;5071772;28;20036;-36
2022/12/23 10:49:58;;;;;;;;;;;;;;;9.25;56.33;99564.16;5072257;28;20024;-36
2022/12/23 10:52:28;;;;;;;66.25;32.55;;;;;;;8.73;55.82;99552.31;5072004;28;19962;-38
2022/12/23 10:54:54;;;;;;;65.50;33.55;;;;;;;8.61;56.89;99562.66;5072246;28;20103;-38
2022/12/23 10:57:20;;;;;;;63.75;34.00;;;;;;;8.76;56.52;99557.25;5071814;28;20484;-37
2022/12/23 10:59:45;;;;;;;61.33;32.50;;;;;;;8.18;57.82;99554.78;5071732;28;20025;-37
2022/12/23 11:02:11;;;;;;;59.28;31.95;;;;;;;8.08;57.57;99554.28;5071318;28;20444;-36
2022/12/23 11:04:48;;;;;;;61.83;32.92;;;;;;;8.09;58.26;99555.91;5071125;28;20033;-37
2022/12/23 11:07:23;;;;;;;65.47;32.45;;;;;;;8.02;58.69;99550.59;5071295;28;20024;-36
2022/12/23 11:10:03;;;;;;;63.83;30.17;;;;;;;8.44;57.71;99556.84;5071104;28;20106;-37
2022/12/23 11:12:39;;;;;;;63.67;30.48;;;;;;;8.22;57.88;99553.38;5071567;28;20040;-36
2022/12/23 11:15:23;;;;;;;54.35;30.90;;;;;;;8.01;59.23;99552.41;5071226;28;20031;-37
2022/12/23 11:18:01;;;;;;;55.63;29.80;;;;;;;8.65;57.20;99544.53;5071146;28;20106;-39
2022/12/23 11:20:26;;;;;;;51.65;29.63;;;;;;;8.38;57.36;99544.31;5071015;28;20036;-37
2022/12/23 11:22:55;;;;;;;48.65;28.42;;;;;;;8.72;57.53;99535.56;5071625;28;20546;-36
2022/12/23 11:25:35;;;;;;;63.80;29.60;;;;;;;8.82;57.39;99548.47;5071033;28;20484;-37
2022/12/23 11:28:08;;;;;;;53.05;28.73;;;;;;;9.06;56.33;99538.38;5071404;28;20024;-35
2022/12/23 11:30:55;;;;;;;54.75;30.20;;;;;;;9.07;55.85;99538.19;5071249;28;20337;-37
2022/12/23 11:33:33;;;;;;;52.53;27.63;;;;;;;9.14;55.88;99538.22;5071248;28;20036;-36
2022/12/23 11:36:16;;;;;;;53.88;28.85;;;;;;;9.74;54.63;99531.16;5071355;28;20373;-36
2022/12/23 11:38:57;;;;;;;58.10;31.10;;;;;;;9.78;54.17;99524.44;5071370;28;20036;-36
2022/12/23 11:41:26;;;;;;;55.90;30.55;;;;;;;9.77;53.61;99522.00;5070876;28;20032;-36
2022/12/23 11:44:05;;;;;;;54.25;29.70;;;;;;;9.93;53.58;99521.56;5070582;28;20445;-36
2022/12/23 11:46:33;;;;;;;45.53;27.35;;;;;;;10.14;53.67;99533.03;5070551;28;20487;-36
2022/12/23 11:49:17;;;;;;;56.10;28.52;;;;;;;10.11;52.59;99520.97;5070637;28;20024;-36
2022/12/23 11:51:46;;;;;;;55.42;28.63;;;;;;;9.27;54.70;99518.81;5070467;28;20062;-36
2022/12/23 11:54:18;;;;;;;48.83;27.38;;;;;;;9.36;53.95;99515.78;5070622;28;20054;-37
2022/12/23 11:56:47;;;;;;;49.28;27.90;;;;;;;9.62;53.88;99524.84;5070717;28;20036;-37
2022/12/23 11:59:37;;;;;;;60.83;28.05;;;;;;;10.12;52.46;99522.59;5070796;28;20025;-37